createdAt,value
2022-09-01T00:01:43.138Z,1.95
2022-09-01T00:04:12.756Z,2.33
2022-09-01T00:06:42.616Z,1.65
2022-09-01T00:09:13.504Z,2.05
2022-09-01T00:11:42.683Z,2.47
2022-09-01T00:14:30.307Z,2.35
2022-09-01T00:17:04.227Z,2.05
2022-09-01T00:19:36.495Z,2.30
2022-09-01T00:22:04.153Z,1.92
2022-09-01T00:24:30.693Z,2.38
2022-09-01T00:26:57.463Z,1.80
2022-09-01T00:29:25.166Z,2.22
2022-09-01T00:31:51.885Z,2.35
2022-09-01T00:34:20.315Z,2.60
2022-09-01T00:36:49.058Z,2.58
2022-09-01T00:39:15.993Z,2.00
2022-09-01T00:41:44.998Z,2.50
2022-09-01T00:44:18.948Z,5.63
2022-09-01T00:46:55.530Z,3.17
2022-09-01T00:49:35.663Z,2.75
2022-09-01T00:52:16.070Z,2.78
2022-09-01T00:54:50.560Z,2.78
2022-09-01T00:57:18.376Z,3.10
2022-09-01T00:59:54.841Z,2.78
2022-09-01T01:02:22.910Z,2.83
2022-09-01T01:04:49.704Z,4.35
2022-09-01T01:07:16.924Z,4.13
2022-09-01T01:09:46.375Z,4.80
2022-09-01T01:12:18.306Z,4.70
2022-09-01T01:14:52.518Z,3.83
2022-09-01T01:17:21.032Z,4.10
2022-09-01T01:20:11.968Z,4.75
2022-09-01T01:23:03.083Z,4.38
2022-09-01T01:25:42.380Z,4.50
2022-09-01T01:28:26.781Z,4.18
2022-09-01T01:31:01.783Z,4.88
2022-09-01T01:33:42.739Z,4.85
2022-09-01T01:36:16.017Z,4.45
2022-09-01T01:38:48.505Z,4.60
2022-09-01T01:41:19.628Z,4.13
2022-09-01T01:43:48.215Z,4.13
2022-09-01T01:46:16.074Z,4.22
2022-09-01T01:48:42.818Z,3.72
2022-09-01T01:51:11.938Z,4.07
2022-09-01T01:53:38.904Z,5.13
2022-09-01T01:56:06.250Z,4.15
2022-09-01T01:58:34.849Z,4.45
2022-09-01T02:01:01.690Z,3.50
2022-09-01T02:03:35.068Z,4.00
2022-09-01T02:06:04.677Z,3.58
2022-09-01T02:08:31.066Z,3.67
2022-09-01T02:11:00.171Z,4.35
2022-09-01T02:13:30.318Z,3.85
2022-09-01T02:16:12.554Z,3.80
2022-09-01T02:18:48.524Z,4.07
2022-09-01T02:21:19.707Z,3.80
2022-09-01T02:24:02.136Z,3.30
2022-09-01T02:26:32.893Z,3.63
2022-09-01T02:29:04.767Z,3.90
2022-09-01T02:34:13.866Z,3.72
2022-09-01T02:36:47.543Z,3.35
2022-09-01T02:39:20.163Z,3.17
2022-09-01T02:41:47.368Z,2.65
2022-09-01T02:44:14.798Z,2.75
2022-09-01T02:46:46.075Z,3.13
2022-09-01T02:49:15.661Z,2.75
2022-09-01T02:51:44.564Z,7.88
2022-09-01T02:54:16.593Z,4.00
2022-09-01T02:59:12.964Z,4.80
2022-09-01T03:01:40.264Z,4.00
2022-09-01T03:04:10.769Z,3.67
2022-09-01T03:06:38.535Z,3.00
2022-09-01T03:09:08.855Z,2.75
2022-09-01T03:11:43.174Z,2.97
2022-09-01T03:14:09.796Z,3.28
2022-09-01T03:16:42.247Z,3.28
2022-09-01T03:19:09.643Z,2.70
2022-09-01T03:21:44.558Z,3.17
2022-09-01T03:24:15.085Z,3.60
2022-09-01T03:26:45.386Z,3.10
2022-09-01T03:29:17.098Z,3.38
2022-09-01T03:31:43.582Z,4.28
2022-09-01T03:34:12.589Z,4.25
2022-09-01T03:36:50.130Z,4.65
2022-09-01T03:39:19.003Z,3.90
2022-09-01T03:41:45.675Z,3.55
2022-09-01T03:44:15.077Z,3.30
2022-09-01T03:46:45.225Z,4.03
2022-09-01T03:49:15.530Z,3.83
2022-09-01T03:51:44.292Z,4.13
2022-09-01T03:54:11.409Z,4.65
2022-09-01T03:56:40.573Z,4.18
2022-09-01T03:59:07.782Z,3.22
2022-09-01T04:01:39.938Z,4.85
2022-09-01T04:06:34.165Z,5.18
2022-09-01T04:09:03.099Z,4.00
2022-09-01T04:11:30.725Z,3.90
2022-09-01T04:13:57.197Z,3.72
2022-09-01T04:16:46.480Z,5.20
2022-09-01T04:19:25.394Z,4.43
2022-09-01T04:21:55.760Z,4.00
2022-09-01T04:24:24.367Z,4.18
2022-09-01T04:26:54.612Z,3.97
2022-09-01T04:29:28.798Z,4.95
2022-09-01T04:32:03.377Z,4.60
2022-09-01T04:34:37.324Z,4.30
2022-09-01T04:37:18.051Z,5.32
2022-09-01T04:39:56.321Z,4.78
2022-09-01T04:42:25.375Z,4.00
2022-09-01T04:44:53.957Z,4.10
2022-09-01T04:47:30.198Z,5.25
2022-09-01T04:50:03.599Z,4.85
2022-09-01T04:52:31.926Z,4.25
2022-09-01T04:54:58.677Z,4.72
2022-09-01T04:57:27.579Z,4.20
2022-09-01T04:59:56.728Z,4.90
2022-09-01T05:02:27.117Z,4.20
2022-09-01T05:04:58.650Z,4.22
2022-09-01T05:07:25.141Z,5.72
2022-09-01T05:09:58.027Z,5.13
2022-09-01T05:12:27.603Z,4.80
2022-09-01T05:14:54.079Z,4.05
2022-09-01T05:17:21.545Z,5.13
2022-09-01T05:19:50.611Z,4.70
2022-09-01T05:22:18.664Z,4.72
2022-09-01T05:24:45.677Z,4.63
2022-09-01T05:27:13.130Z,5.00
2022-09-01T05:29:41.557Z,4.75
2022-09-01T05:32:10.141Z,4.18
2022-09-01T05:34:40.905Z,4.45
2022-09-01T05:37:08.757Z,3.42
2022-09-01T05:39:38.252Z,5.32
2022-09-01T05:42:08.428Z,5.50
2022-09-01T05:44:40.924Z,3.85
2022-09-01T05:47:08.822Z,4.32
2022-09-01T05:49:35.246Z,4.20
2022-09-01T05:52:01.765Z,5.13
2022-09-01T05:54:29.064Z,5.20
2022-09-01T05:57:13.092Z,4.97
2022-09-01T05:59:45.952Z,5.43
2022-09-01T06:02:12.741Z,6.07
2022-09-01T06:04:44.081Z,5.43
2022-09-01T06:07:16.561Z,5.10
2022-09-01T06:09:49.436Z,4.78
2022-09-01T06:12:20.374Z,4.50
2022-09-01T06:14:53.020Z,4.13
2022-09-01T06:17:24.976Z,4.70
2022-09-01T06:19:53.286Z,3.25
2022-09-01T06:22:20.678Z,4.53
2022-09-01T06:24:56.603Z,4.95
2022-09-01T06:27:27.597Z,4.97
2022-09-01T06:29:58.648Z,6.82
2022-09-01T06:32:26.949Z,4.37
2022-09-01T06:34:53.594Z,4.60
2022-09-01T06:37:23.049Z,5.45
2022-09-01T06:39:54.396Z,5.82
2022-09-01T06:42:23.166Z,6.03
2022-09-01T06:44:49.559Z,5.78
2022-09-01T06:47:16.038Z,6.32
2022-09-01T06:49:42.991Z,6.25
2022-09-01T06:52:16.021Z,6.55
2022-09-01T06:54:43.956Z,6.00
2022-09-01T06:59:57.153Z,5.70
2022-09-01T07:02:27.164Z,5.93
2022-09-01T07:04:54.862Z,5.07
2022-09-01T07:10:24.888Z,5.68
2022-09-01T07:13:08.108Z,5.40
2022-09-01T07:24:10.397Z,4.72
2022-09-01T07:26:46.679Z,4.65
2022-09-01T07:29:13.872Z,4.97
2022-09-01T07:32:41.147Z,5.13
2022-09-01T07:34:40.364Z,4.97
2022-09-01T07:45:30.712Z,4.40
2022-09-01T07:48:06.388Z,4.30
2022-09-01T07:51:07.572Z,4.75
2022-09-01T07:53:31.540Z,4.18
2022-09-01T07:56:06.939Z,4.88
2022-09-01T07:58:33.622Z,4.07
2022-09-01T08:01:02.774Z,4.70
2022-09-01T08:03:30.695Z,3.95
2022-09-01T08:06:03.853Z,4.32
2022-09-01T08:08:30.621Z,4.15
2022-09-01T08:11:06.597Z,4.40
2022-09-01T08:13:41.787Z,4.57
2022-09-01T08:16:16.825Z,3.80
2022-09-01T08:18:48.497Z,3.78
2022-09-01T08:21:17.252Z,3.83
2022-09-01T08:23:44.342Z,4.25
2022-09-01T08:26:14.384Z,3.70
2022-09-01T08:28:54.532Z,3.80
2022-09-01T08:31:23.736Z,3.78
2022-09-01T08:33:50.797Z,3.72
2022-09-01T08:36:23.046Z,4.38
2022-09-01T08:38:51.987Z,3.38
2022-09-01T08:41:46.773Z,3.30
2022-09-01T08:44:22.326Z,3.60
2022-09-01T08:46:57.790Z,3.53
2022-09-01T08:49:27.158Z,3.33
2022-09-01T08:52:22.102Z,3.60
2022-09-01T08:54:50.636Z,3.45
2022-09-01T08:57:25.245Z,3.58
2022-09-01T08:59:56.778Z,3.38
2022-09-01T09:05:29.508Z,3.47
2022-09-01T09:08:33.615Z,3.00
2022-09-01T09:11:18.864Z,3.10
2022-09-01T09:13:58.804Z,3.08
2022-09-01T09:16:30.833Z,2.92
2022-09-01T09:19:03.564Z,3.10
2022-09-01T09:21:38.085Z,3.35
2022-09-01T09:24:18.106Z,2.35
2022-09-01T09:26:52.972Z,2.60
2022-09-01T09:29:23.307Z,2.95
2022-09-01T09:32:03.084Z,2.55
2022-09-01T09:34:30.202Z,2.63
2022-09-01T09:36:57.385Z,2.90
2022-09-01T09:39:24.178Z,2.80
2022-09-01T09:42:11.267Z,2.50
2022-09-01T09:44:48.975Z,2.35
2022-09-01T09:47:43.714Z,2.40
2022-09-01T09:50:20.136Z,2.35
2022-09-01T09:52:48.176Z,2.75
2022-09-01T09:55:24.772Z,1.90
2022-09-01T09:57:57.820Z,2.47
2022-09-01T10:00:29.247Z,2.67
2022-09-01T10:03:04.494Z,2.30
2022-09-01T10:05:48.959Z,2.08
2022-09-01T10:08:27.282Z,2.45
2022-09-01T10:10:57.747Z,2.50
2022-09-01T10:13:26.941Z,1.77
2022-09-01T10:15:57.551Z,1.80
2022-09-01T10:18:35.286Z,1.85
2022-09-01T10:21:09.866Z,1.75
2022-09-01T10:23:41.450Z,2.28
2022-09-01T10:26:14.713Z,2.28
2022-09-01T10:28:52.828Z,2.20
2022-09-01T10:31:21.333Z,1.83
2022-09-01T10:33:49.820Z,1.73
2022-09-01T10:36:19.989Z,1.90
2022-09-01T10:38:53.760Z,1.75
2022-09-01T10:41:43.382Z,1.80
2022-09-01T10:44:19.348Z,1.45
2022-09-01T10:46:51.237Z,1.42
2022-09-01T10:49:47.186Z,1.75
2022-09-01T10:52:43.071Z,1.63
2022-09-01T10:55:24.440Z,1.55
2022-09-01T10:58:09.319Z,1.80
2022-09-01T11:03:51.933Z,1.50
2022-09-01T11:09:43.675Z,1.67
2022-09-01T11:12:31.432Z,1.73
2022-09-01T11:14:59.373Z,1.70
2022-09-01T11:17:25.849Z,1.92
2022-09-01T11:20:00.707Z,1.95
2022-09-01T11:22:52.855Z,1.77
2022-09-01T11:28:47.500Z,1.55
2022-09-01T11:31:31.350Z,2.20
2022-09-01T11:34:23.347Z,2.10
2022-09-01T11:36:59.400Z,1.67
2022-09-01T11:39:41.356Z,1.90
2022-09-01T11:42:19.173Z,1.80
2022-09-01T11:45:07.092Z,1.83
2022-09-01T11:47:44.723Z,1.80
2022-09-01T11:50:21.974Z,1.60
2022-09-01T11:53:04.078Z,1.92
2022-09-01T11:55:35.713Z,1.65
2022-09-01T11:58:03.419Z,1.70
2022-09-01T12:00:33.853Z,1.80
2022-09-01T12:03:00.716Z,1.90
2022-09-01T12:05:29.378Z,1.55
2022-09-01T12:07:58.956Z,2.00
2022-09-01T12:10:33.676Z,2.10
2022-09-01T12:13:08.771Z,2.45
2022-09-01T12:15:54.976Z,2.17
2022-09-01T12:18:35.055Z,1.70
2022-09-01T12:21:04.222Z,2.03
2022-09-01T12:23:37.086Z,2.33
2022-09-01T12:26:11.688Z,2.33
2022-09-01T12:28:42.225Z,2.28
2022-09-01T12:31:15.618Z,2.42
2022-09-01T12:33:45.899Z,2.55
2022-09-01T12:36:26.120Z,2.15
2022-09-01T12:38:57.467Z,2.10
2022-09-01T12:41:38.941Z,2.70
2022-09-01T12:44:39.734Z,2.70
2022-09-01T12:47:35.714Z,2.28
2022-09-01T12:50:11.300Z,2.33
2022-09-01T12:52:53.039Z,2.13
2022-09-01T12:55:53.296Z,2.33
2022-09-01T12:58:25.963Z,1.80
2022-09-01T13:01:08.850Z,2.10
2022-09-01T13:03:42.713Z,2.17
2022-09-01T13:06:13.946Z,1.67
2022-09-01T13:08:40.474Z,1.98
2022-09-01T13:11:11.372Z,2.05
2022-09-01T13:13:38.621Z,2.22
2022-09-01T13:16:12.888Z,1.95
2022-09-01T13:21:30.142Z,2.03
2022-09-01T13:23:56.817Z,1.60
2022-09-01T13:26:24.020Z,1.48
2022-09-01T13:28:51.616Z,1.88
2022-09-01T13:31:29.179Z,2.25
2022-09-01T13:34:23.078Z,2.03
2022-09-01T13:36:49.102Z,1.92
2022-09-01T13:39:22.738Z,2.22
2022-09-01T13:41:49.735Z,2.25
2022-09-01T13:44:18.030Z,1.70
2022-09-01T13:47:28.269Z,2.05
2022-09-01T13:52:21.843Z,1.42
2022-09-01T13:54:48.252Z,1.70
2022-09-01T13:57:16.249Z,1.98
2022-09-01T13:59:42.881Z,1.70
2022-09-01T14:02:10.837Z,1.65
2022-09-01T14:04:37.390Z,1.52
2022-09-01T14:07:04.267Z,1.42
2022-09-01T14:09:30.956Z,1.83
2022-09-01T14:11:57.539Z,1.98
2022-09-01T14:14:24.256Z,1.83
2022-09-01T14:16:53.948Z,1.88
2022-09-01T14:19:20.423Z,1.65
2022-09-01T14:21:47.357Z,1.38
2022-09-01T14:24:14.657Z,1.80
2022-09-01T14:26:41.659Z,2.00
2022-09-01T14:29:08.315Z,1.90
2022-09-01T14:31:37.770Z,1.80
2022-09-01T14:34:06.660Z,1.70
2022-09-01T14:36:33.480Z,1.50
2022-09-01T14:38:59.891Z,1.40
2022-09-01T14:41:32.349Z,1.70
2022-09-01T14:44:05.028Z,1.92
2022-09-01T14:46:34.421Z,1.50
2022-09-01T14:49:03.117Z,2.20
2022-09-01T14:54:17.525Z,2.05
2022-09-01T14:57:28.114Z,1.88
2022-09-01T14:59:33.210Z,1.73
2022-09-01T15:02:00.368Z,1.85
2022-09-01T15:04:27.946Z,1.40
2022-09-01T15:06:54.599Z,1.58
2022-09-01T15:09:21.322Z,1.50
2022-09-01T15:11:47.783Z,1.40
2022-09-01T15:14:14.453Z,1.38
2022-09-01T15:16:43.544Z,1.35
2022-09-01T15:19:13.242Z,1.27
2022-09-01T15:21:41.803Z,1.40
2022-09-01T15:24:10.883Z,1.52
2022-09-01T15:26:40.733Z,1.50
2022-09-01T15:29:09.859Z,1.48
2022-09-01T15:31:36.376Z,1.50
2022-09-01T15:34:06.290Z,1.38
2022-09-01T15:36:36.947Z,1.60
2022-09-01T15:39:06.024Z,1.53
2022-09-01T15:41:34.539Z,1.67
2022-09-01T15:44:02.734Z,1.80
2022-09-01T15:46:32.834Z,1.20
2022-09-01T15:49:06.366Z,1.33
2022-09-01T15:51:39.228Z,1.60
2022-09-01T15:54:12.087Z,1.75
2022-09-01T15:56:38.898Z,1.20
2022-09-01T15:59:09.455Z,1.77
2022-09-01T16:01:41.495Z,1.27
2022-09-01T16:04:17.810Z,1.55
2022-09-01T16:06:50.944Z,1.10
2022-09-01T16:09:18.526Z,1.30
2022-09-01T16:11:45.091Z,1.42
2022-09-01T16:14:11.985Z,1.58
2022-09-01T16:16:56.520Z,1.65
2022-09-01T16:19:42.901Z,1.90
2022-09-01T16:22:23.284Z,1.35
2022-09-01T16:24:56.070Z,1.55
2022-09-01T16:27:35.934Z,1.80
2022-09-01T16:30:07.966Z,1.40
2022-09-01T16:32:39.151Z,1.10
2022-09-01T16:35:06.904Z,1.45
2022-09-01T16:37:55.374Z,1.65
2022-09-01T16:40:39.523Z,1.65
2022-09-01T16:43:24.709Z,1.30
2022-09-01T16:46:19.265Z,1.63
2022-09-01T16:48:51.993Z,1.80
2022-09-01T16:51:46.540Z,1.42
2022-09-01T16:54:35.001Z,1.60
2022-09-01T16:57:35.169Z,1.88
2022-09-01T17:00:11.081Z,1.73
2022-09-01T17:03:07.818Z,1.90
2022-09-01T17:05:44.468Z,1.85
2022-09-01T17:08:31.140Z,1.70
2022-09-01T17:11:09.727Z,1.70
2022-09-01T17:13:53.274Z,1.65
2022-09-01T17:16:29.685Z,1.90
2022-09-01T17:19:04.825Z,1.40
2022-09-01T17:21:43.082Z,1.35
2022-09-01T17:24:38.488Z,1.50
2022-09-01T17:27:14.005Z,1.60
2022-09-01T17:29:45.824Z,1.70
2022-09-01T17:32:36.578Z,1.42
2022-09-01T17:35:17.729Z,1.70
2022-09-01T17:37:58.484Z,1.50
2022-09-01T17:40:42.965Z,1.63
2022-09-01T17:43:21.542Z,1.92
2022-09-01T17:46:05.762Z,1.45
2022-09-01T17:49:15.025Z,1.90
2022-09-01T17:52:22.846Z,1.80
2022-09-01T17:55:07.722Z,1.58
2022-09-01T17:57:52.493Z,1.83
2022-09-01T18:00:28.271Z,1.58
2022-09-01T18:03:02.346Z,1.52
2022-09-01T18:05:34.585Z,1.52
2022-09-01T18:08:10.227Z,1.90
2022-09-01T18:10:59.036Z,1.45
2022-09-01T18:13:52.388Z,1.48
2022-09-01T18:16:24.674Z,1.27
2022-09-01T18:21:37.319Z,1.40
2022-09-01T18:24:15.772Z,1.77
2022-09-01T18:26:48.540Z,1.88
2022-09-01T18:29:18.016Z,1.50
2022-09-01T18:32:07.916Z,1.30
2022-09-01T18:34:56.088Z,1.52
2022-09-01T18:37:49.928Z,1.58
2022-09-01T18:40:30.905Z,1.63
2022-09-01T18:43:16.697Z,1.83
2022-09-01T18:46:14.143Z,1.88
2022-09-01T18:49:07.265Z,1.80
2022-09-01T18:51:46.453Z,1.52
2022-09-01T18:54:22.702Z,1.73
2022-09-01T18:57:02.793Z,1.50
2022-09-01T18:59:44.650Z,1.60
2022-09-01T19:04:52.732Z,1.50
2022-09-01T19:10:10.265Z,1.70
2022-09-01T19:13:13.590Z,1.50
2022-09-01T19:15:49.525Z,1.48
2022-09-01T19:18:26.137Z,1.50
2022-09-01T19:21:00.771Z,1.60
2022-09-01T19:23:44.329Z,1.73
2022-09-01T19:26:16.833Z,1.70
2022-09-01T19:28:51.010Z,1.70
2022-09-01T19:31:36.732Z,1.80
2022-09-01T19:34:20.329Z,1.65
2022-09-01T19:36:57.990Z,1.63
2022-09-01T19:39:31.430Z,1.30
2022-09-01T19:42:19.509Z,1.23
2022-09-01T19:45:06.879Z,1.58
2022-09-01T19:48:05.923Z,1.33
2022-09-01T19:50:38.496Z,1.55
2022-09-01T19:53:30.779Z,1.67
2022-09-01T19:56:31.277Z,1.80
2022-09-01T19:59:21.910Z,1.73
2022-09-01T20:01:59.295Z,2.13
2022-09-01T20:04:53.645Z,1.33
2022-09-01T20:07:39.020Z,1.50
2022-09-01T20:10:16.430Z,1.52
2022-09-01T20:13:24.947Z,1.70
2022-09-01T20:16:10.951Z,1.80
2022-09-01T20:18:46.368Z,1.52
2022-09-01T20:21:20.744Z,1.85
2022-09-01T20:23:54.329Z,1.80
2022-09-01T20:26:32.766Z,1.60
2022-09-01T20:29:01.337Z,2.10
2022-09-01T20:31:39.567Z,1.58
2022-09-01T20:34:36.811Z,1.58
2022-09-01T20:37:16.557Z,1.92
2022-09-01T20:40:01.171Z,1.90
2022-09-01T20:42:39.103Z,1.85
2022-09-01T20:45:14.562Z,2.20
2022-09-01T20:47:45.259Z,1.80
2022-09-01T20:50:13.960Z,2.17
2022-09-01T20:52:58.842Z,2.08
2022-09-01T20:55:32.618Z,2.08
2022-09-01T20:58:26.766Z,1.90
2022-09-01T21:01:26.721Z,1.67
2022-09-01T21:04:29.417Z,2.15
2022-09-01T21:06:55.846Z,2.30
2022-09-01T21:09:49.648Z,2.20
2022-09-01T21:12:31.182Z,2.33
2022-09-01T21:15:19.232Z,2.30
2022-09-01T21:18:12.153Z,1.98
2022-09-01T21:21:03.407Z,2.10
2022-09-01T21:23:32.742Z,1.90
2022-09-01T21:26:00.337Z,1.38
2022-09-01T21:28:28.348Z,2.05
2022-09-01T21:30:57.730Z,1.88
2022-09-01T21:33:27.523Z,1.67
2022-09-01T21:35:54.396Z,1.70
2022-09-01T21:38:23.624Z,1.90
2022-09-01T21:40:51.606Z,1.95
2022-09-01T21:43:21.225Z,2.10
2022-09-01T21:45:50.337Z,2.00
2022-09-01T21:48:17.725Z,2.10
2022-09-01T21:50:45.945Z,1.90
2022-09-01T21:53:14.609Z,1.80
2022-09-01T21:55:41.341Z,1.80
2022-09-01T21:58:08.358Z,2.50
2022-09-01T22:00:39.267Z,2.25
2022-09-01T22:03:07.542Z,2.27
2022-09-01T22:05:35.753Z,2.22
2022-09-01T22:08:02.531Z,2.40
2022-09-01T22:10:31.492Z,2.03
2022-09-01T22:12:59.026Z,2.55
2022-09-01T22:15:28.815Z,2.70
2022-09-01T22:17:56.693Z,2.40
2022-09-01T22:20:24.653Z,2.10
2022-09-01T22:23:01.886Z,2.20
2022-09-01T22:25:30.409Z,2.00
2022-09-01T22:28:02.538Z,2.03
2022-09-01T22:30:29.479Z,2.15
2022-09-01T22:32:56.072Z,2.05
2022-09-01T22:35:25.582Z,2.20
2022-09-01T22:37:52.092Z,2.15
2022-09-01T22:40:18.922Z,2.20
2022-09-01T22:42:45.922Z,2.17
2022-09-01T22:45:14.329Z,2.00
2022-09-01T22:47:41.340Z,2.17
2022-09-01T22:50:08.960Z,1.92
2022-09-01T22:52:38.319Z,2.10
2022-09-01T22:55:05.492Z,2.20
2022-09-01T22:57:32.354Z,2.40
2022-09-01T22:59:58.884Z,2.08
2022-09-01T23:02:25.395Z,2.10
2022-09-01T23:04:52.160Z,2.03
2022-09-01T23:07:18.599Z,1.85
2022-09-01T23:09:47.439Z,2.10
2022-09-01T23:12:13.832Z,1.90
2022-09-01T23:14:41.282Z,2.13
2022-09-01T23:17:07.767Z,2.28
2022-09-01T23:19:35.471Z,2.00
2022-09-01T23:22:05.179Z,1.90
2022-09-01T23:24:31.631Z,2.45
2022-09-01T23:26:58.163Z,1.98
2022-09-01T23:29:25.319Z,2.03
2022-09-01T23:31:51.790Z,2.25
2022-09-01T23:34:18.331Z,3.47
2022-09-01T23:36:45.003Z,2.05
2022-09-01T23:39:11.452Z,2.30
2022-09-01T23:41:38.655Z,1.63
2022-09-01T23:44:11.314Z,2.10
2022-09-01T23:46:41.891Z,1.95
2022-09-01T23:49:09.316Z,1.80
2022-09-01T23:51:35.850Z,1.88
2022-09-01T23:54:05.793Z,1.90
2022-09-01T23:56:32.667Z,2.33
2022-09-01T23:58:59.982Z,2.63
